Hoogeveen Airport

EHHO · Drenthe, Nederland

6 oktober 2022

Tijd Code Weer Temp. Zicht Plafond Wind METAR/SPECI
19:25
V
11 °C 10 km+ - 220° 220° 8 kt METAR EHGG 061725Z AUTO 22008KT 9999 NCD 11/08 Q1027 NOSIG
18:55
V
12 °C 10 km+ - 220° 220° 8 kt METAR EHGG 061655Z AUTO 22008KT 9999 NCD 12/07 Q1027 NOSIG
18:25
V
14 °C 10 km+ - 230° 230° 13 kt METAR EHGG 061625Z AUTO 23013KT 200V260 9999 NCD 14/08 Q1027 NOSIG
17:55
V
15 °C 10 km+ - 240° 240° 12 kt METAR EHGG 061555Z AUTO 24012KT 210V270 9999 NCD 15/08 Q1027 NOSIG
17:25
V
15 °C 10 km+ - 230° 230° 14 - 24 kt METAR EHGG 061525Z AUTO 23014G24KT 200V270 9999 FEW038 15/08 Q1027 NOSIG
16:55
V
16 °C 10 km+ - 240° 240° 15 kt METAR EHGG 061455Z AUTO 24015KT 9999 NCD 16/08 Q1027 NOSIG
16:25
V
16 °C 10 km+ - 250° 250° 15 kt METAR EHGG 061425Z AUTO 25015KT 210V270 9999 NCD 16/07 Q1027 NOSIG
15:55
V
16 °C 10 km+ - 240° 240° 14 kt METAR EHGG 061355Z AUTO 24014KT 210V280 9999 FEW037 16/08 Q1027 NOSIG
15:25
V
17 °C 10 km+ - 240° 240° 15 - 25 kt METAR EHGG 061325Z AUTO 24015G25KT 210V290 9999 FEW037 17/08 Q1027 NOSIG
14:55
V
17 °C 10 km+ - 240° 240° 15 kt METAR EHGG 061255Z AUTO 24015KT 220V280 9999 NCD 17/08 Q1027 NOSIG
14:25
V
17 °C 10 km+ 3.600 ft 230° 230° 18 kt METAR EHGG 061225Z AUTO 23018KT 9999 BKN036 17/08 Q1027 NOSIG
13:55
V
17 °C 10 km+ - 230° 230° 19 kt METAR EHGG 061155Z AUTO 23019KT 9999 NCD 17/08 Q1027 NOSIG
13:25
V
17 °C 10 km+ 3.700 ft 230° 230° 17 kt METAR EHGG 061125Z AUTO 23017KT 200V300 9999 SCT032 BKN037 17/08 Q1027 NOSIG
12:55
V
16 °C 10 km+ - 250° 250° 13 kt METAR EHGG 061055Z AUTO 25013KT 220V280 9999 SCT031 16/08 Q1027 NOSIG
12:25
V
15 °C 10 km+ - 250° 250° 15 kt METAR EHGG 061025Z AUTO 25015KT 210V290 9999 FEW030 15/08 Q1026 NOSIG
11:55
V
16 °C 10 km+ 3.000 ft 250° 250° 13 kt METAR EHGG 060955Z AUTO 25013KT 210V280 9999 SCT026 BKN030 BKN037 16/09 Q1026 NOSIG
11:25
V
15 °C 10 km+ - 250° 250° 14 kt METAR EHGG 060925Z AUTO 25014KT 220V290 9999 FEW026 15/09 Q1026 NOSIG
10:55
V
15 °C 10 km+ - 250° 250° 13 kt METAR EHGG 060855Z AUTO 25013KT 210V290 9999 NCD 15/09 Q1025 NOSIG
10:25
V
14 °C 10 km+ - 240° 240° 12 kt METAR EHGG 060825Z AUTO 24012KT 210V270 9999 NCD 14/10 Q1025 NOSIG
09:55
V
13 °C 10 km+ - 230° 230° 11 kt METAR EHGG 060755Z AUTO 23011KT 9999 NCD 13/10 Q1025 NOSIG
09:25
V
12 °C 10 km+ - 230° 230° 11 kt METAR EHGG 060725Z AUTO 23011KT 9999 NCD 12/09 Q1024 NOSIG
08:55
V
11 °C 10 km+ - 230° 230° 10 kt METAR EHGG 060655Z AUTO 23010KT 9999 SCT030 SCT039 11/09 Q1024 NOSIG
08:25
M
11 °C 10 km+ 2.900 ft 230° 230° 9 kt METAR EHGG 060625Z AUTO 23009KT 9999 BKN029 BKN033 BKN038 11/09 Q1023 NOSIG
07:55
V
10 °C 10 km+ - 230° 230° 10 kt METAR EHGG 060555Z AUTO 23010KT 9999 FEW030 10/08 Q1023 NOSIG
07:25
V
10 °C 10 km+ - 230° 230° 9 kt METAR EHGG 060525Z AUTO 23009KT 9999 NCD 10/08 Q1022 NOSIG
06:55
V
10 °C 10 km+ - 230° 230° 9 kt METAR EHGG 060455Z AUTO 23009KT 9999 NCD 10/08 Q1022 NOSIG
06:25
V
9 °C 10 km+ - 230° 230° 9 kt METAR EHGG 060425Z AUTO 23009KT 9999 NCD 09/07 Q1021 NOSIG
05:55
V
11 °C 10 km+ - 240° 240° 8 kt METAR EHGG 060355Z AUTO 24008KT 9999 NSC 11/08 Q1021
05:25
V
10 °C 10 km+ - 230° 230° 8 kt METAR EHGG 060325Z AUTO 23008KT 9999 FEW032 10/08 Q1020
04:55
V
10 °C 10 km+ - 230° 230° 9 kt METAR EHGG 060255Z AUTO 23009KT 9999 NCD 10/08 Q1020
04:25
V
12 °C 10 km+ - 240° 240° 10 kt METAR EHGG 060225Z AUTO 24010KT 9999 NCD 12/09 Q1019
03:55
V
12 °C 10 km+ - 240° 240° 10 kt METAR EHGG 060155Z AUTO 24010KT 9999 NCD 12/09 Q1019
03:25
V
12 °C 10 km+ - 240° 240° 11 kt METAR EHGG 060125Z AUTO 24011KT 9999 NCD 12/09 Q1018
02:55
V
12 °C 10 km+ - 230° 230° 10 kt METAR EHGG 060055Z AUTO 23010KT 9999 FEW046 12/09 Q1018
02:25
V
13 °C 10 km+ - 230° 230° 11 kt METAR EHGG 060025Z AUTO 23011KT 9999 NCD 13/10 Q1017
01:55
V
13 °C 10 km+ - 240° 240° 12 kt METAR EHGG 052355Z AUTO 24012KT 210V270 9999 NCD 13/10 Q1016
01:25
V
13 °C 10 km+ 3.000 ft 230° 230° 12 kt METAR EHGG 052325Z AUTO 23012KT 200V270 9999 BKN030 13/11 Q1016
00:55
V
13 °C 10 km+ - 230° 230° 10 kt METAR EHGG 052255Z AUTO 23010KT 9999 NSC 13/12 Q1015
00:25
V
13 °C 10 km+ - 240° 240° 10 kt METAR EHGG 052225Z AUTO 24010KT 200V280 9999 NSC 13/12 Q1015

5 oktober 2022

Tijd Code Weer Temp. Zicht Plafond Wind METAR/SPECI
23:55
V
14 °C 10 km+ - 240° 240° 12 kt METAR EHGG 052155Z AUTO 24012KT 9999 FEW013 14/12 Q1014 REDZ
23:25
V
14 °C 10 km+ 3.400 ft 240° 240° 13 kt METAR EHGG 052125Z AUTO 24013KT 200V280 9999 DZ FEW013 BKN034 BKN040 14/13 Q1014
22:55
V
14 °C 10 km+ - 240° 240° 13 kt METAR EHGG 052055Z AUTO 24013KT 210V270 9999 FEW008 SCT009 14/13 Q1013 REDZ
22:25
M
14 °C 7 km 1.400 ft 240° 240° 13 kt METAR EHGG 052025Z AUTO 24013KT 210V280 7000 DZ FEW007 SCT011 BKN014 14/13 Q1013 TEMPO 3500 DZRA BKN007
21:55
M
15 °C 5 km 3.000 ft 240° 240° 17 kt METAR EHGG 051955Z AUTO 24017KT 220V290 5000 DZ FEW010 SCT016 BKN030 15/13 Q1012 TEMPO 3000 DZRA BKN012 BECMG FM1945 27016KT
21:25
M
17 °C 10 km+ 2.200 ft 220° 220° 19 kt METAR EHGG 051925Z AUTO 22019KT 180V240 9999 OVC022 17/12 Q1011 TEMPO 3000 DZRA BKN012 BECMG FM1945 27016KT
20:55
M
17 °C 10 km+ 2.400 ft 210° 210° 19 kt METAR EHGG 051855Z AUTO 21019KT 180V240 9999 OVC024 17/12 Q1011 TEMPO 3000 DZRA BKN012 BECMG FM2000 27016KT
20:25
M
17 °C 10 km+ 2.500 ft 210° 210° 19 kt METAR EHGG 051825Z AUTO 21019KT 180V250 9999 OVC025 17/12 Q1011 NOSIG
19:55
M
17 °C 10 km+ 2.500 ft 210° 210° 17 kt METAR EHGG 051755Z AUTO 21017KT 170V240 9999 OVC025 17/11 Q1010 NOSIG
19:25
M
17 °C 10 km+ 2.700 ft 210° 210° 19 - 30 kt METAR EHGG 051725Z AUTO 21019G30KT 180V250 9999 OVC027 17/11 Q1010 NOSIG
18:55
V
17 °C 10 km+ 3.000 ft 210° 210° 18 kt METAR EHGG 051655Z AUTO 21018KT 180V240 9999 OVC030 17/11 Q1010 NOSIG
18:25
V
17 °C 10 km+ 3.400 ft 210° 210° 19 - 29 kt METAR EHGG 051625Z AUTO 21019G29KT 180V240 9999 OVC034 17/11 Q1010 NOSIG
17:55
V
17 °C 10 km+ 3.800 ft 220° 220° 17 - 28 kt METAR EHGG 051555Z AUTO 22017G28KT 180V240 9999 FEW029 OVC038 17/12 Q1010 NOSIG
17:25
V
17 °C 10 km+ 3.200 ft 220° 220° 19 - 29 kt METAR EHGG 051525Z AUTO 22019G29KT 190V250 9999 SCT028 BKN032 OVC037 17/12 Q1010 NOSIG
16:55
V
17 °C 10 km+ 3.000 ft 220° 220° 18 kt METAR EHGG 051455Z AUTO 22018KT 180V250 9999 SCT026 OVC030 17/12 Q1010 NOSIG
16:25
V
17 °C 10 km+ 3.200 ft 210° 210° 18 kt METAR EHGG 051425Z AUTO 21018KT 180V240 9999 FEW023 SCT028 BKN032 17/12 Q1010 NOSIG
15:55
M
17 °C 10 km+ 2.600 ft 210° 210° 16 kt METAR EHGG 051355Z AUTO 21016KT 170V250 9999 SCT023 BKN026 OVC030 17/12 Q1010 NOSIG
15:25
M
17 °C 10 km+ 2.700 ft 220° 220° 16 kt METAR EHGG 051325Z AUTO 22016KT 180V240 9999 FEW023 BKN027 OVC031 17/12 Q1011 NOSIG
14:55
M
16 °C 10 km+ 2.400 ft 220° 220° 16 kt METAR EHGG 051255Z AUTO 22016KT 180V240 9999 BKN024 OVC027 16/12 Q1011 NOSIG
14:25
M
16 °C 10 km+ 2.400 ft 220° 220° 18 - 28 kt METAR EHGG 051225Z AUTO 22018G28KT 180V240 9999 BKN024 OVC028 16/11 Q1011 NOSIG
13:55
M
16 °C 10 km+ 2.400 ft 220° 220° 19 - 30 kt METAR EHGG 051155Z AUTO 22019G30KT 190V250 9999 OVC024 16/11 Q1011 NOSIG
13:25
M
16 °C 10 km+ 2.300 ft 220° 220° 20 - 33 kt METAR EHGG 051125Z AUTO 22020G33KT 9999 OVC023 16/11 Q1011 NOSIG
12:55
M
16 °C 10 km+ 2.200 ft 210° 210° 18 - 29 kt METAR EHGG 051055Z AUTO 21018G29KT 160V240 9999 OVC022 16/12 Q1011 NOSIG
12:25
M
16 °C 10 km+ 2.200 ft 210° 210° 20 kt METAR EHGG 051025Z AUTO 21020KT 180V240 9999 OVC022 16/12 Q1011 NOSIG
11:55
M
17 °C 10 km+ 2.600 ft 200° 200° 17 kt METAR EHGG 050955Z AUTO 20017KT 170V230 9999 FEW023 OVC026 17/12 Q1011 TEMPO 21017G27KT
11:25
M
16 °C 10 km+ 2.400 ft 210° 210° 17 kt METAR EHGG 050925Z AUTO 21017KT 170V240 9999 SCT021 BKN024 OVC028 16/12 Q1012 TEMPO 21017G27KT
10:55
M
16 °C 10 km+ 2.800 ft 200° 200° 15 kt METAR EHGG 050855Z AUTO 20015KT 170V230 9999 OVC028 16/12 Q1012 TEMPO 21017G27KT
10:25
M
15 °C 10 km+ 2.700 ft 200° 200° 16 kt METAR EHGG 050825Z AUTO 20016KT 9999 OVC027 15/11 Q1012 NOSIG
09:55
M
15 °C 10 km+ 2.800 ft 200° 200° 15 kt METAR EHGG 050755Z AUTO 20015KT 170V230 9999 OVC028 15/11 Q1012 NOSIG
09:25
M
15 °C 10 km+ 2.700 ft 210° 210° 13 kt METAR EHGG 050725Z AUTO 21013KT 180V240 9999 OVC027 15/11 Q1012 NOSIG
08:55
M
15 °C 10 km+ 2.500 ft 210° 210° 13 kt METAR EHGG 050655Z AUTO 21013KT 170V240 9999 OVC025 15/11 Q1012 NOSIG
08:25
M
15 °C 10 km+ 2.700 ft 210° 210° 14 kt METAR EHGG 050625Z AUTO 21014KT 170V230 9999 OVC027 15/11 Q1012 NOSIG
07:55
M
15 °C 10 km+ 2.500 ft 210° 210° 13 kt METAR EHGG 050555Z AUTO 21013KT 170V230 9999 OVC025 15/11 Q1012 NOSIG
07:25
M
15 °C 10 km+ 2.600 ft 210° 210° 14 kt METAR EHGG 050525Z AUTO 21014KT 180V240 9999 OVC026 15/11 Q1012 NOSIG
06:55
M
15 °C 10 km+ 2.700 ft 210° 210° 13 kt METAR EHGG 050455Z AUTO 21013KT 170V230 9999 OVC027 15/11 Q1012 NOSIG
06:25
M
15 °C 10 km+ 2.700 ft 200° 200° 11 kt METAR EHGG 050425Z AUTO 20011KT 170V230 9999 BKN027 OVC031 15/12 Q1013 NOSIG
05:55
M
15 °C 10 km+ 2.700 ft 210° 210° 10 kt METAR EHGG 050355Z AUTO 21010KT 180V240 9999 FEW024 OVC027 15/12 Q1013 NOSIG
05:25
M
15 °C 10 km+ 2.900 ft 210° 210° 11 kt METAR EHGG 050325Z AUTO 21011KT 9999 OVC029 15/12 Q1013
04:55
V
15 °C 10 km+ 3.000 ft 210° 210° 10 kt METAR EHGG 050255Z AUTO 21010KT 9999 OVC030 15/12 Q1013
04:25
V
15 °C 10 km+ 3.600 ft 210° 210° 12 kt METAR EHGG 050225Z AUTO 21012KT 180V240 9999 OVC036 15/12 Q1013
03:55
V
15 °C 10 km+ 3.700 ft 210° 210° 13 kt METAR EHGG 050155Z AUTO 21013KT 9999 OVC037 15/12 Q1014
03:25
V
15 °C 10 km+ 3.700 ft 210° 210° 13 kt METAR EHGG 050125Z AUTO 21013KT 180V240 9999 BKN037 15/12 Q1014
02:55
V
15 °C 10 km+ 3.500 ft 200° 200° 10 kt METAR EHGG 050055Z AUTO 20010KT 170V230 9999 OVC035 15/12 Q1014
02:25
V
15 °C 10 km+ 3.500 ft 210° 210° 11 kt METAR EHGG 050025Z AUTO 21011KT 9999 SCT030/// OVC035/// 15/12 Q1015
01:55
V
15 °C 10 km+ 3.500 ft 210° 210° 11 kt METAR EHGG 042355Z AUTO 21011KT 9999 OVC035 15/12 Q1015
01:25
V
15 °C 10 km+ 3.400 ft 200° 200° 11 kt METAR EHGG 042325Z AUTO 20011KT 170V240 9999 BKN034 OVC038 15/12 Q1015
00:55
V
15 °C 10 km+ 3.800 ft 210° 210° 9 kt METAR EHGG 042255Z AUTO 21009KT 9999 OVC038 15/12 Q1015
00:25
V
15 °C 10 km+ 3.900 ft 210° 210° 9 kt METAR EHGG 042225Z AUTO 21009KT 180V240 9999 OVC039 15/12 Q1016

4 oktober 2022

Tijd Code Weer Temp. Zicht Plafond Wind METAR/SPECI
23:55
V
15 °C 10 km+ 3.900 ft 200° 200° 9 kt METAR EHGG 042155Z AUTO 20009KT 170V240 9999 OVC039 15/11 Q1016
23:25
V
15 °C 10 km+ 3.800 ft 200° 200° 9 kt METAR EHGG 042125Z AUTO 20009KT 9999 OVC038 15/11 Q1016 NOSIG
22:55
V
15 °C 10 km+ 3.700 ft 200° 200° 8 kt METAR EHGG 042055Z AUTO 20008KT 9999 OVC037 15/11 Q1016 NOSIG
22:25
M
15 °C 10 km+ 2.500 ft 190° 190° 8 kt METAR EHGG 042025Z AUTO 19008KT 160V220 9999 BKN025 OVC039 15/11 Q1016 NOSIG
21:55
V
16 °C 10 km+ 3.300 ft 190° 190° 10 kt METAR EHGG 041955Z AUTO 19010KT 170V230 9999 OVC033 16/11 Q1016 NOSIG
21:25
V
16 °C 10 km+ 3.700 ft 190° 190° 10 kt METAR EHGG 041925Z AUTO 19010KT 170V230 9999 OVC037 16/10 Q1016 NOSIG
20:55
V
15 °C 10 km+ 3.900 ft 200° 200° 10 kt METAR EHGG 041855Z AUTO 20010KT 170V230 9999 OVC039 15/10 Q1016 NOSIG
20:25
V
15 °C 10 km+ 4.100 ft 200° 200° 9 kt METAR EHGG 041825Z AUTO 20009KT 170V230 9999 OVC041 15/10 Q1017 NOSIG
19:55
V
15 °C 10 km+ 4.200 ft 190° 190° 8 kt METAR EHGG 041755Z AUTO 19008KT 9999 OVC042 15/10 Q1016 NOSIG
19:25
V
15 °C 10 km+ 4.100 ft 190° 190° 7 kt METAR EHGG 041725Z AUTO 19007KT 160V220 9999 OVC041 15/10 Q1016 NOSIG
18:55
V
15 °C 10 km+ 4.200 ft 190° 190° 7 kt METAR EHGG 041655Z AUTO 19007KT 9999 BKN042 15/10 Q1017 NOSIG
18:25
V
16 °C 10 km+ 4.100 ft 190° 190° 7 kt METAR EHGG 041625Z AUTO 19007KT 9999 BKN041 16/10 Q1017 NOSIG
17:55
V
16 °C 10 km+ - 180° 180° 7 kt METAR EHGG 041555Z AUTO 18007KT 150V210 9999 NSC 16/10 Q1017 NOSIG
17:25
V
16 °C 10 km+ - 210° 210° 9 kt METAR EHGG 041525Z AUTO 21009KT 9999 NSC 16/09 Q1017 NOSIG
16:55
V
17 °C 10 km+ - 210° 210° 13 kt METAR EHGG 041455Z AUTO 21013KT 9999 NSC 17/09 Q1017 NOSIG
Oudere gegevens

Met cookies volgen wij en derde partijen jouw internetgedrag binnen onze site. Als je verdergaat gaan we ervan uit dat je dit goedvindt. Meer info